sensor_id;sensor_type;location;lat;lon;timestamp;P1;durP1;ratioP1;P2;durP2;ratioP2
8187;SDS011;4135;49.184;9.722;2023-03-01T00:01:59;4.97;;;2.75;;
8187;SDS011;4135;49.184;9.722;2023-03-01T00:04:28;4.55;;;2.63;;
8187;SDS011;4135;49.184;9.722;2023-03-01T00:06:58;3.25;;;2.50;;
8187;SDS011;4135;49.184;9.722;2023-03-01T00:09:27;3.85;;;2.67;;
8187;SDS011;4135;49.184;9.722;2023-03-01T00:11:57;3.70;;;2.33;;
8187;SDS011;4135;49.184;9.722;2023-03-01T00:14:26;3.45;;;2.88;;
8187;SDS011;4135;49.184;9.722;2023-03-01T00:16:56;3.90;;;2.97;;
8187;SDS011;4135;49.184;9.722;2023-03-01T00:19:26;4.65;;;3.08;;
8187;SDS011;4135;49.184;9.722;2023-03-01T00:21:55;5.18;;;2.28;;
8187;SDS011;4135;49.184;9.722;2023-03-01T00:24:25;3.22;;;2.17;;
8187;SDS011;4135;49.184;9.722;2023-03-01T00:26:54;4.05;;;2.78;;
8187;SDS011;4135;49.184;9.722;2023-03-01T00:29:24;4.60;;;2.85;;
8187;SDS011;4135;49.184;9.722;2023-03-01T00:31:54;3.45;;;2.55;;
8187;SDS011;4135;49.184;9.722;2023-03-01T00:34:23;6.18;;;3.10;;
8187;SDS011;4135;49.184;9.722;2023-03-01T00:36:53;4.43;;;2.72;;
8187;SDS011;4135;49.184;9.722;2023-03-01T00:39:22;3.33;;;2.67;;
8187;SDS011;4135;49.184;9.722;2023-03-01T00:41:52;3.38;;;2.58;;
8187;SDS011;4135;49.184;9.722;2023-03-01T00:44:21;4.18;;;3.42;;
8187;SDS011;4135;49.184;9.722;2023-03-01T00:46:51;7.30;;;3.33;;
8187;SDS011;4135;49.184;9.722;2023-03-01T00:49:20;2.88;;;2.42;;
8187;SDS011;4135;49.184;9.722;2023-03-01T00:51:50;4.82;;;2.72;;
8187;SDS011;4135;49.184;9.722;2023-03-01T00:54:20;4.25;;;2.78;;
8187;SDS011;4135;49.184;9.722;2023-03-01T00:56:49;4.20;;;2.95;;
8187;SDS011;4135;49.184;9.722;2023-03-01T00:59:19;3.45;;;2.92;;
8187;SDS011;4135;49.184;9.722;2023-03-01T01:01:48;2.55;;;2.40;;
8187;SDS011;4135;49.184;9.722;2023-03-01T01:04:18;6.95;;;2.90;;
8187;SDS011;4135;49.184;9.722;2023-03-01T01:06:47;3.97;;;2.80;;
8187;SDS011;4135;49.184;9.722;2023-03-01T01:09:17;6.10;;;3.15;;
8187;SDS011;4135;49.184;9.722;2023-03-01T01:11:47;4.35;;;3.22;;
8187;SDS011;4135;49.184;9.722;2023-03-01T01:14:19;6.97;;;3.20;;
8187;SDS011;4135;49.184;9.722;2023-03-01T01:16:48;4.57;;;2.72;;
8187;SDS011;4135;49.184;9.722;2023-03-01T01:19:18;3.10;;;2.78;;
8187;SDS011;4135;49.184;9.722;2023-03-01T01:21:48;2.92;;;2.67;;
8187;SDS011;4135;49.184;9.722;2023-03-01T01:24:18;3.83;;;2.80;;
8187;SDS011;4135;49.184;9.722;2023-03-01T01:26:48;3.33;;;2.95;;
8187;SDS011;4135;49.184;9.722;2023-03-01T01:29:18;6.75;;;3.42;;
8187;SDS011;4135;49.184;9.722;2023-03-01T01:31:47;5.25;;;2.85;;
8187;SDS011;4135;49.184;9.722;2023-03-01T01:34:19;4.40;;;2.47;;
8187;SDS011;4135;49.184;9.722;2023-03-01T01:36:51;3.90;;;2.67;;
8187;SDS011;4135;49.184;9.722;2023-03-01T01:39:23;4.80;;;3.45;;
8187;SDS011;4135;49.184;9.722;2023-03-01T01:41:52;5.10;;;3.22;;
8187;SDS011;4135;49.184;9.722;2023-03-01T01:44:26;5.07;;;2.90;;
8187;SDS011;4135;49.184;9.722;2023-03-01T01:47:16;3.63;;;2.92;;
8187;SDS011;4135;49.184;9.722;2023-03-01T01:49:49;3.30;;;3.00;;
8187;SDS011;4135;49.184;9.722;2023-03-01T01:52:26;5.07;;;3.13;;
8187;SDS011;4135;49.184;9.722;2023-03-01T01:55:01;5.13;;;3.33;;
8187;SDS011;4135;49.184;9.722;2023-03-01T01:57:38;5.85;;;3.00;;
8187;SDS011;4135;49.184;9.722;2023-03-01T02:00:13;6.72;;;3.58;;
8187;SDS011;4135;49.184;9.722;2023-03-01T02:02:45;6.00;;;2.95;;
8187;SDS011;4135;49.184;9.722;2023-03-01T02:05:26;6.05;;;3.40;;
8187;SDS011;4135;49.184;9.722;2023-03-01T02:07:57;7.00;;;3.30;;
8187;SDS011;4135;49.184;9.722;2023-03-01T02:10:28;6.65;;;2.95;;
8187;SDS011;4135;49.184;9.722;2023-03-01T02:13:00;3.05;;;2.65;;
8187;SDS011;4135;49.184;9.722;2023-03-01T02:15:32;5.82;;;3.33;;
8187;SDS011;4135;49.184;9.722;2023-03-01T02:18:04;4.63;;;2.95;;
8187;SDS011;4135;49.184;9.722;2023-03-01T02:23:12;5.22;;;3.30;;
8187;SDS011;4135;49.184;9.722;2023-03-01T02:25:51;4.43;;;2.75;;
8187;SDS011;4135;49.184;9.722;2023-03-01T02:28:36;4.03;;;2.97;;
8187;SDS011;4135;49.184;9.722;2023-03-01T02:31:09;3.35;;;2.22;;
8187;SDS011;4135;49.184;9.722;2023-03-01T02:34:00;5.28;;;3.20;;
8187;SDS011;4135;49.184;9.722;2023-03-01T02:36:38;5.00;;;2.95;;
8187;SDS011;4135;49.184;9.722;2023-03-01T02:39:11;3.97;;;3.20;;
8187;SDS011;4135;49.184;9.722;2023-03-01T02:41:50;4.57;;;3.25;;
8187;SDS011;4135;49.184;9.722;2023-03-01T02:44:22;3.08;;;2.70;;
8187;SDS011;4135;49.184;9.722;2023-03-01T02:46:53;2.97;;;2.50;;
8187;SDS011;4135;49.184;9.722;2023-03-01T02:49:26;4.15;;;2.50;;
8187;SDS011;4135;49.184;9.722;2023-03-01T02:55:05;5.00;;;2.90;;
8187;SDS011;4135;49.184;9.722;2023-03-01T02:57:38;6.40;;;3.05;;
8187;SDS011;4135;49.184;9.722;2023-03-01T03:00:13;4.38;;;2.45;;
8187;SDS011;4135;49.184;9.722;2023-03-01T03:02:51;4.97;;;2.45;;
8187;SDS011;4135;49.184;9.722;2023-03-01T03:05:25;3.72;;;2.45;;
8187;SDS011;4135;49.184;9.722;2023-03-01T03:07:57;7.65;;;2.95;;
8187;SDS011;4135;49.184;9.722;2023-03-01T03:10:29;5.65;;;2.70;;
8187;SDS011;4135;49.184;9.722;2023-03-01T03:13:03;5.13;;;3.45;;
8187;SDS011;4135;49.184;9.722;2023-03-01T03:15:37;3.78;;;2.78;;
8187;SDS011;4135;49.184;9.722;2023-03-01T03:18:09;3.50;;;2.55;;
8187;SDS011;4135;49.184;9.722;2023-03-01T03:20:41;4.47;;;2.97;;
8187;SDS011;4135;49.184;9.722;2023-03-01T03:23:12;5.15;;;2.65;;
8187;SDS011;4135;49.184;9.722;2023-03-01T03:25:42;4.53;;;3.25;;
8187;SDS011;4135;49.184;9.722;2023-03-01T03:28:11;3.30;;;2.53;;
8187;SDS011;4135;49.184;9.722;2023-03-01T03:30:41;4.15;;;2.30;;
8187;SDS011;4135;49.184;9.722;2023-03-01T03:33:12;4.78;;;2.85;;
8187;SDS011;4135;49.184;9.722;2023-03-01T03:35:45;6.65;;;3.05;;
8187;SDS011;4135;49.184;9.722;2023-03-01T03:38:18;2.28;;;2.08;;
8187;SDS011;4135;49.184;9.722;2023-03-01T03:41:03;4.32;;;2.55;;
8187;SDS011;4135;49.184;9.722;2023-03-01T03:43:36;3.22;;;2.30;;
8187;SDS011;4135;49.184;9.722;2023-03-01T03:46:06;5.10;;;2.60;;
8187;SDS011;4135;49.184;9.722;2023-03-01T03:48:40;4.60;;;2.83;;
8187;SDS011;4135;49.184;9.722;2023-03-01T03:51:13;5.60;;;3.25;;
8187;SDS011;4135;49.184;9.722;2023-03-01T03:53:44;4.22;;;2.40;;
8187;SDS011;4135;49.184;9.722;2023-03-01T03:56:14;6.05;;;2.63;;
8187;SDS011;4135;49.184;9.722;2023-03-01T03:58:43;2.60;;;2.40;;
8187;SDS011;4135;49.184;9.722;2023-03-01T04:01:13;3.28;;;2.30;;
8187;SDS011;4135;49.184;9.722;2023-03-01T04:03:42;3.67;;;2.25;;
8187;SDS011;4135;49.184;9.722;2023-03-01T04:06:15;7.65;;;2.92;;
8187;SDS011;4135;49.184;9.722;2023-03-01T04:08:45;3.88;;;2.92;;
8187;SDS011;4135;49.184;9.722;2023-03-01T04:11:14;3.95;;;2.35;;
8187;SDS011;4135;49.184;9.722;2023-03-01T04:13:56;4.25;;;3.42;;
8187;SDS011;4135;49.184;9.722;2023-03-01T04:16:27;2.80;;;2.28;;
8187;SDS011;4135;49.184;9.722;2023-03-01T04:18:57;3.30;;;2.70;;
8187;SDS011;4135;49.184;9.722;2023-03-01T04:21:28;5.47;;;2.90;;
8187;SDS011;4135;49.184;9.722;2023-03-01T04:23:58;4.22;;;2.45;;
8187;SDS011;4135;49.184;9.722;2023-03-01T04:26:27;4.20;;;2.33;;
8187;SDS011;4135;49.184;9.722;2023-03-01T04:28:57;4.60;;;2.28;;
8187;SDS011;4135;49.184;9.722;2023-03-01T04:31:26;3.30;;;2.60;;
8187;SDS011;4135;49.184;9.722;2023-03-01T04:33:57;4.53;;;2.65;;
8187;SDS011;4135;49.184;9.722;2023-03-01T04:36:27;5.25;;;3.05;;
8187;SDS011;4135;49.184;9.722;2023-03-01T04:38:57;3.55;;;2.97;;
8187;SDS011;4135;49.184;9.722;2023-03-01T04:41:27;4.45;;;2.80;;
8187;SDS011;4135;49.184;9.722;2023-03-01T04:43:56;4.32;;;2.92;;
8187;SDS011;4135;49.184;9.722;2023-03-01T04:46:28;3.70;;;2.30;;
8187;SDS011;4135;49.184;9.722;2023-03-01T04:48:58;3.30;;;2.70;;
8187;SDS011;4135;49.184;9.722;2023-03-01T04:51:27;5.05;;;3.38;;
8187;SDS011;4135;49.184;9.722;2023-03-01T04:53:57;3.53;;;2.80;;
8187;SDS011;4135;49.184;9.722;2023-03-01T04:56:27;4.57;;;2.90;;
8187;SDS011;4135;49.184;9.722;2023-03-01T04:58:56;3.95;;;2.90;;
8187;SDS011;4135;49.184;9.722;2023-03-01T05:01:26;5.38;;;2.70;;
8187;SDS011;4135;49.184;9.722;2023-03-01T05:03:55;3.60;;;2.63;;
8187;SDS011;4135;49.184;9.722;2023-03-01T05:06:25;3.78;;;2.53;;
8187;SDS011;4135;49.184;9.722;2023-03-01T05:08:54;3.63;;;2.55;;
8187;SDS011;4135;49.184;9.722;2023-03-01T05:11:24;3.65;;;2.60;;
8187;SDS011;4135;49.184;9.722;2023-03-01T05:13:53;6.63;;;2.90;;
8187;SDS011;4135;49.184;9.722;2023-03-01T05:16:23;4.97;;;2.72;;
8187;SDS011;4135;49.184;9.722;2023-03-01T05:18:53;4.22;;;2.80;;
8187;SDS011;4135;49.184;9.722;2023-03-01T05:21:25;5.30;;;2.60;;
8187;SDS011;4135;49.184;9.722;2023-03-01T05:23:55;4.83;;;2.63;;
8187;SDS011;4135;49.184;9.722;2023-03-01T05:26:25;5.45;;;3.08;;
8187;SDS011;4135;49.184;9.722;2023-03-01T05:28:57;4.75;;;3.10;;
8187;SDS011;4135;49.184;9.722;2023-03-01T05:31:27;5.05;;;3.13;;
8187;SDS011;4135;49.184;9.722;2023-03-01T05:33:57;5.10;;;3.10;;
8187;SDS011;4135;49.184;9.722;2023-03-01T05:36:26;4.22;;;3.08;;
8187;SDS011;4135;49.184;9.722;2023-03-01T05:38:56;3.88;;;3.08;;
8187;SDS011;4135;49.184;9.722;2023-03-01T05:41:25;7.63;;;2.70;;
8187;SDS011;4135;49.184;9.722;2023-03-01T05:43:55;4.97;;;2.60;;
8187;SDS011;4135;49.184;9.722;2023-03-01T05:46:24;6.85;;;2.63;;
8187;SDS011;4135;49.184;9.722;2023-03-01T05:48:54;5.35;;;3.35;;
8187;SDS011;4135;49.184;9.722;2023-03-01T05:51:24;7.80;;;2.88;;
8187;SDS011;4135;49.184;9.722;2023-03-01T05:53:53;4.97;;;3.45;;
8187;SDS011;4135;49.184;9.722;2023-03-01T05:56:23;5.40;;;3.40;;
8187;SDS011;4135;49.184;9.722;2023-03-01T05:58:52;6.75;;;3.42;;
8187;SDS011;4135;49.184;9.722;2023-03-01T06:01:22;6.03;;;3.80;;
8187;SDS011;4135;49.184;9.722;2023-03-01T06:03:51;5.35;;;3.30;;
8187;SDS011;4135;49.184;9.722;2023-03-01T06:06:21;3.97;;;2.90;;
8187;SDS011;4135;49.184;9.722;2023-03-01T06:08:51;6.82;;;3.95;;
8187;SDS011;4135;49.184;9.722;2023-03-01T06:11:22;4.93;;;3.00;;
8187;SDS011;4135;49.184;9.722;2023-03-01T06:13:51;6.80;;;3.72;;
8187;SDS011;4135;49.184;9.722;2023-03-01T06:16:21;7.53;;;3.17;;
8187;SDS011;4135;49.184;9.722;2023-03-01T06:18:50;3.67;;;3.15;;
8187;SDS011;4135;49.184;9.722;2023-03-01T06:21:20;7.10;;;2.63;;
8187;SDS011;4135;49.184;9.722;2023-03-01T06:23:49;4.53;;;3.17;;
8187;SDS011;4135;49.184;9.722;2023-03-01T06:26:19;9.73;;;3.33;;
8187;SDS011;4135;49.184;9.722;2023-03-01T06:28:48;5.28;;;3.15;;
8187;SDS011;4135;49.184;9.722;2023-03-01T06:31:18;6.55;;;3.75;;
8187;SDS011;4135;49.184;9.722;2023-03-01T06:33:47;12.60;;;3.88;;
8187;SDS011;4135;49.184;9.722;2023-03-01T06:36:16;6.68;;;3.97;;
8187;SDS011;4135;49.184;9.722;2023-03-01T06:38:47;6.47;;;3.70;;
8187;SDS011;4135;49.184;9.722;2023-03-01T06:41:17;8.98;;;3.95;;
8187;SDS011;4135;49.184;9.722;2023-03-01T06:43:46;8.25;;;3.40;;
8187;SDS011;4135;49.184;9.722;2023-03-01T06:46:16;4.07;;;3.40;;
8187;SDS011;4135;49.184;9.722;2023-03-01T06:48:46;5.47;;;3.60;;
8187;SDS011;4135;49.184;9.722;2023-03-01T06:51:15;4.43;;;3.22;;
8187;SDS011;4135;49.184;9.722;2023-03-01T06:53:45;5.95;;;3.00;;
8187;SDS011;4135;49.184;9.722;2023-03-01T06:56:15;6.20;;;3.10;;
8187;SDS011;4135;49.184;9.722;2023-03-01T06:58:45;5.53;;;3.28;;
8187;SDS011;4135;49.184;9.722;2023-03-01T07:01:14;6.20;;;3.33;;
8187;SDS011;4135;49.184;9.722;2023-03-01T07:03:44;5.95;;;3.42;;
8187;SDS011;4135;49.184;9.722;2023-03-01T07:06:13;5.53;;;3.20;;
8187;SDS011;4135;49.184;9.722;2023-03-01T07:08:43;6.13;;;3.25;;
8187;SDS011;4135;49.184;9.722;2023-03-01T07:11:13;4.82;;;3.17;;
8187;SDS011;4135;49.184;9.722;2023-03-01T07:13:42;7.80;;;3.17;;
8187;SDS011;4135;49.184;9.722;2023-03-01T07:16:12;4.65;;;3.25;;
8187;SDS011;4135;49.184;9.722;2023-03-01T07:18:43;5.47;;;3.45;;
8187;SDS011;4135;49.184;9.722;2023-03-01T07:21:13;5.00;;;3.10;;
8187;SDS011;4135;49.184;9.722;2023-03-01T07:23:43;6.65;;;3.30;;
8187;SDS011;4135;49.184;9.722;2023-03-01T07:26:12;5.30;;;3.25;;
8187;SDS011;4135;49.184;9.722;2023-03-01T07:28:42;4.97;;;3.40;;
8187;SDS011;4135;49.184;9.722;2023-03-01T07:31:11;5.35;;;3.17;;
8187;SDS011;4135;49.184;9.722;2023-03-01T07:33:41;8.75;;;3.38;;
8187;SDS011;4135;49.184;9.722;2023-03-01T07:36:11;3.97;;;2.47;;
8187;SDS011;4135;49.184;9.722;2023-03-01T07:38:40;5.28;;;3.35;;
8187;SDS011;4135;49.184;9.722;2023-03-01T07:41:10;5.93;;;4.13;;
8187;SDS011;4135;49.184;9.722;2023-03-01T07:43:39;3.78;;;2.97;;
8187;SDS011;4135;49.184;9.722;2023-03-01T07:46:09;4.70;;;3.10;;
8187;SDS011;4135;49.184;9.722;2023-03-01T07:48:38;6.55;;;3.45;;
8187;SDS011;4135;49.184;9.722;2023-03-01T07:51:09;4.75;;;3.25;;
8187;SDS011;4135;49.184;9.722;2023-03-01T07:53:39;5.95;;;3.05;;
8187;SDS011;4135;49.184;9.722;2023-03-01T07:56:10;5.65;;;3.17;;
8187;SDS011;4135;49.184;9.722;2023-03-01T07:58:41;7.32;;;3.47;;
8187;SDS011;4135;49.184;9.722;2023-03-01T08:01:12;5.03;;;3.50;;
8187;SDS011;4135;49.184;9.722;2023-03-01T08:03:44;5.75;;;3.17;;
8187;SDS011;4135;49.184;9.722;2023-03-01T08:06:15;4.90;;;3.47;;
8187;SDS011;4135;49.184;9.722;2023-03-01T08:08:45;7.35;;;3.30;;
8187;SDS011;4135;49.184;9.722;2023-03-01T08:11:15;9.10;;;3.58;;
8187;SDS011;4135;49.184;9.722;2023-03-01T08:13:46;5.03;;;3.33;;
8187;SDS011;4135;49.184;9.722;2023-03-01T08:16:16;6.65;;;3.47;;
8187;SDS011;4135;49.184;9.722;2023-03-01T08:18:46;7.78;;;4.03;;
8187;SDS011;4135;49.184;9.722;2023-03-01T08:21:16;6.95;;;3.70;;
8187;SDS011;4135;49.184;9.722;2023-03-01T08:23:46;5.40;;;2.80;;
8187;SDS011;4135;49.184;9.722;2023-03-01T08:26:17;6.85;;;3.08;;
8187;SDS011;4135;49.184;9.722;2023-03-01T08:28:48;9.98;;;3.50;;
8187;SDS011;4135;49.184;9.722;2023-03-01T08:31:22;7.75;;;3.60;;
8187;SDS011;4135;49.184;9.722;2023-03-01T08:33:55;8.13;;;4.20;;
8187;SDS011;4135;49.184;9.722;2023-03-01T08:36:26;7.28;;;4.68;;
8187;SDS011;4135;49.184;9.722;2023-03-01T08:38:58;8.45;;;4.22;;
8187;SDS011;4135;49.184;9.722;2023-03-01T08:41:28;12.80;;;6.55;;
8187;SDS011;4135;49.184;9.722;2023-03-01T08:43:57;10.95;;;6.00;;
8187;SDS011;4135;49.184;9.722;2023-03-01T08:46:28;9.45;;;5.47;;
8187;SDS011;4135;49.184;9.722;2023-03-01T08:48:59;14.88;;;6.28;;
8187;SDS011;4135;49.184;9.722;2023-03-01T08:51:29;24.40;;;7.20;;
8187;SDS011;4135;49.184;9.722;2023-03-01T08:54:00;10.25;;;5.90;;
8187;SDS011;4135;49.184;9.722;2023-03-01T08:56:30;19.83;;;6.70;;
8187;SDS011;4135;49.184;9.722;2023-03-01T08:59:00;18.77;;;6.32;;
8187;SDS011;4135;49.184;9.722;2023-03-01T09:01:29;10.30;;;6.40;;
8187;SDS011;4135;49.184;9.722;2023-03-01T09:03:59;10.60;;;5.57;;
8187;SDS011;4135;49.184;9.722;2023-03-01T09:06:31;9.85;;;5.70;;
8187;SDS011;4135;49.184;9.722;2023-03-01T09:09:02;9.73;;;5.80;;
8187;SDS011;4135;49.184;9.722;2023-03-01T09:11:33;9.07;;;5.68;;
8187;SDS011;4135;49.184;9.722;2023-03-01T09:14:04;47.13;;;35.05;;
8187;SDS011;4135;49.184;9.722;2023-03-01T09:16:34;20.10;;;12.05;;
8187;SDS011;4135;49.184;9.722;2023-03-01T09:19:05;11.15;;;7.82;;
8187;SDS011;4135;49.184;9.722;2023-03-01T09:21:34;12.68;;;7.03;;
8187;SDS011;4135;49.184;9.722;2023-03-01T09:24:04;11.82;;;7.10;;
8187;SDS011;4135;49.184;9.722;2023-03-01T09:26:34;12.18;;;7.07;;
8187;SDS011;4135;49.184;9.722;2023-03-01T09:29:03;10.50;;;6.10;;
8187;SDS011;4135;49.184;9.722;2023-03-01T09:31:33;13.10;;;7.18;;
8187;SDS011;4135;49.184;9.722;2023-03-01T09:34:02;11.65;;;6.65;;
8187;SDS011;4135;49.184;9.722;2023-03-01T09:36:32;10.70;;;6.50;;
8187;SDS011;4135;49.184;9.722;2023-03-01T09:39:02;11.73;;;7.53;;
8187;SDS011;4135;49.184;9.722;2023-03-01T09:44:27;10.65;;;6.28;;
8187;SDS011;4135;49.184;9.722;2023-03-01T09:47:12;14.63;;;6.55;;
8187;SDS011;4135;49.184;9.722;2023-03-01T09:49:54;15.88;;;7.85;;
8187;SDS011;4135;49.184;9.722;2023-03-01T09:55:12;9.23;;;6.15;;
8187;SDS011;4135;49.184;9.722;2023-03-01T09:58:00;8.13;;;6.18;;
8187;SDS011;4135;49.184;9.722;2023-03-01T10:00:53;10.70;;;6.07;;
8187;SDS011;4135;49.184;9.722;2023-03-01T10:03:34;12.40;;;7.20;;
8187;SDS011;4135;49.184;9.722;2023-03-01T10:09:00;14.95;;;6.13;;
8187;SDS011;4135;49.184;9.722;2023-03-01T10:11:38;14.77;;;7.78;;
8187;SDS011;4135;49.184;9.722;2023-03-01T10:14:15;11.55;;;7.07;;
8187;SDS011;4135;49.184;9.722;2023-03-01T10:17:03;11.30;;;7.40;;
8187;SDS011;4135;49.184;9.722;2023-03-01T10:19:38;14.32;;;7.82;;
8187;SDS011;4135;49.184;9.722;2023-03-01T10:22:17;10.88;;;7.75;;
8187;SDS011;4135;49.184;9.722;2023-03-01T10:24:53;13.77;;;8.40;;
8187;SDS011;4135;49.184;9.722;2023-03-01T10:27:27;13.25;;;9.20;;
8187;SDS011;4135;49.184;9.722;2023-03-01T10:30:21;24.92;;;8.68;;
8187;SDS011;4135;49.184;9.722;2023-03-01T10:33:10;12.20;;;8.48;;
8187;SDS011;4135;49.184;9.722;2023-03-01T10:35:54;12.15;;;7.93;;
8187;SDS011;4135;49.184;9.722;2023-03-01T10:38:23;19.00;;;7.60;;
8187;SDS011;4135;49.184;9.722;2023-03-01T10:41:00;13.27;;;7.38;;
8187;SDS011;4135;49.184;9.722;2023-03-01T10:46:30;9.60;;;7.65;;
8187;SDS011;4135;49.184;9.722;2023-03-01T10:49:18;14.27;;;8.70;;
8187;SDS011;4135;49.184;9.722;2023-03-01T10:51:50;12.05;;;9.13;;
8187;SDS011;4135;49.184;9.722;2023-03-01T10:54:31;11.88;;;10.05;;
8187;SDS011;4135;49.184;9.722;2023-03-01T10:57:03;15.70;;;8.85;;
8187;SDS011;4135;49.184;9.722;2023-03-01T10:59:34;14.38;;;8.68;;
8187;SDS011;4135;49.184;9.722;2023-03-01T11:04:38;14.63;;;8.55;;
8187;SDS011;4135;49.184;9.722;2023-03-01T11:07:08;15.57;;;8.93;;
8187;SDS011;4135;49.184;9.722;2023-03-01T11:09:37;18.88;;;8.95;;
8187;SDS011;4135;49.184;9.722;2023-03-01T11:12:12;19.05;;;9.32;;
8187;SDS011;4135;49.184;9.722;2023-03-01T11:14:52;12.20;;;9.55;;
8187;SDS011;4135;49.184;9.722;2023-03-01T11:17:30;14.57;;;8.10;;
8187;SDS011;4135;49.184;9.722;2023-03-01T11:22:46;11.48;;;7.35;;
8187;SDS011;4135;49.184;9.722;2023-03-01T11:25:22;13.75;;;7.43;;
8187;SDS011;4135;49.184;9.722;2023-03-01T11:27:55;20.17;;;12.52;;
8187;SDS011;4135;49.184;9.722;2023-03-01T11:30:31;15.90;;;9.13;;
8187;SDS011;4135;49.184;9.722;2023-03-01T11:35:37;11.55;;;8.82;;
8187;SDS011;4135;49.184;9.722;2023-03-01T11:38:24;27.38;;;13.10;;
8187;SDS011;4135;49.184;9.722;2023-03-01T11:41:00;38.00;;;18.83;;
8187;SDS011;4135;49.184;9.722;2023-03-01T11:43:52;69.80;;;34.40;;
8187;SDS011;4135;49.184;9.722;2023-03-01T11:49:05;76.63;;;38.65;;
8187;SDS011;4135;49.184;9.722;2023-03-01T11:51:48;84.90;;;39.35;;
8187;SDS011;4135;49.184;9.722;2023-03-01T12:05:55;60.15;;;29.20;;
8187;SDS011;4135;49.184;9.722;2023-03-01T12:12:03;61.20;;;28.77;;
8187;SDS011;4135;49.184;9.722;2023-03-01T12:14:58;50.83;;;26.25;;
8187;SDS011;4135;49.184;9.722;2023-03-01T12:17:54;43.53;;;24.30;;
8187;SDS011;4135;49.184;9.722;2023-03-01T12:26:31;44.28;;;22.10;;
8187;SDS011;4135;49.184;9.722;2023-03-01T12:32:09;42.40;;;20.00;;
8187;SDS011;4135;49.184;9.722;2023-03-01T12:35:05;41.65;;;19.38;;
8187;SDS011;4135;49.184;9.722;2023-03-01T12:41:00;31.00;;;16.65;;
8187;SDS011;4135;49.184;9.722;2023-03-01T12:44:01;27.88;;;16.20;;
8187;SDS011;4135;49.184;9.722;2023-03-01T12:46:45;37.55;;;16.23;;
8187;SDS011;4135;49.184;9.722;2023-03-01T12:49:36;26.02;;;15.10;;
8187;SDS011;4135;49.184;9.722;2023-03-01T12:52:11;25.60;;;15.43;;
8187;SDS011;4135;49.184;9.722;2023-03-01T12:54:57;25.10;;;13.23;;
8187;SDS011;4135;49.184;9.722;2023-03-01T12:57:54;27.00;;;14.05;;
8187;SDS011;4135;49.184;9.722;2023-03-01T13:03:52;22.48;;;11.80;;
8187;SDS011;4135;49.184;9.722;2023-03-01T13:17:52;22.83;;;10.70;;
8187;SDS011;4135;49.184;9.722;2023-03-01T13:23:03;14.98;;;8.55;;
8187;SDS011;4135;49.184;9.722;2023-03-01T13:31:04;17.38;;;8.27;;
8187;SDS011;4135;49.184;9.722;2023-03-01T13:33:54;14.82;;;8.30;;
8187;SDS011;4135;49.184;9.722;2023-03-01T13:38:57;16.23;;;8.70;;
8187;SDS011;4135;49.184;9.722;2023-03-01T13:44:20;16.23;;;8.70;;
8187;SDS011;4135;49.184;9.722;2023-03-01T13:47:08;14.50;;;7.60;;
8187;SDS011;4135;49.184;9.722;2023-03-01T13:50:02;13.30;;;7.80;;
8187;SDS011;4135;49.184;9.722;2023-03-01T13:57:43;14.15;;;8.38;;
8187;SDS011;4135;49.184;9.722;2023-03-01T14:00:35;15.40;;;7.75;;
8187;SDS011;4135;49.184;9.722;2023-03-01T14:03:11;10.65;;;6.82;;
8187;SDS011;4135;49.184;9.722;2023-03-01T14:05:56;10.52;;;6.88;;
8187;SDS011;4135;49.184;9.722;2023-03-01T14:08:29;14.35;;;7.53;;
8187;SDS011;4135;49.184;9.722;2023-03-01T14:19:56;9.77;;;5.60;;
8187;SDS011;4135;49.184;9.722;2023-03-01T14:22:29;8.27;;;5.65;;
8187;SDS011;4135;49.184;9.722;2023-03-01T14:25:03;9.00;;;5.97;;
8187;SDS011;4135;49.184;9.722;2023-03-01T14:27:36;7.25;;;5.72;;
8187;SDS011;4135;49.184;9.722;2023-03-01T14:30:20;9.98;;;5.95;;
8187;SDS011;4135;49.184;9.722;2023-03-01T14:32:56;8.82;;;5.75;;
8187;SDS011;4135;49.184;9.722;2023-03-01T14:35:32;8.27;;;5.55;;
8187;SDS011;4135;49.184;9.722;2023-03-01T14:38:04;8.60;;;5.47;;
8187;SDS011;4135;49.184;9.722;2023-03-01T14:40:34;11.15;;;5.68;;
8187;SDS011;4135;49.184;9.722;2023-03-01T14:43:09;7.28;;;5.43;;
8187;SDS011;4135;49.184;9.722;2023-03-01T14:45:47;7.43;;;4.95;;
8187;SDS011;4135;49.184;9.722;2023-03-01T14:48:18;7.63;;;5.05;;
8187;SDS011;4135;49.184;9.722;2023-03-01T14:50:48;12.82;;;6.00;;
8187;SDS011;4135;49.184;9.722;2023-03-01T14:53:29;8.63;;;5.70;;
8187;SDS011;4135;49.184;9.722;2023-03-01T14:56:00;9.77;;;5.32;;
8187;SDS011;4135;49.184;9.722;2023-03-01T14:58:33;10.15;;;5.43;;
8187;SDS011;4135;49.184;9.722;2023-03-01T15:01:04;14.50;;;6.18;;
8187;SDS011;4135;49.184;9.722;2023-03-01T15:03:35;14.57;;;5.85;;
8187;SDS011;4135;49.184;9.722;2023-03-01T15:06:07;12.25;;;5.80;;
8187;SDS011;4135;49.184;9.722;2023-03-01T15:08:37;24.35;;;6.43;;
8187;SDS011;4135;49.184;9.722;2023-03-01T15:13:42;18.85;;;7.20;;
8187;SDS011;4135;49.184;9.722;2023-03-01T15:16:15;27.80;;;8.13;;
8187;SDS011;4135;49.184;9.722;2023-03-01T15:18:49;22.30;;;6.85;;
8187;SDS011;4135;49.184;9.722;2023-03-01T15:21:31;27.92;;;7.60;;
8187;SDS011;4135;49.184;9.722;2023-03-01T15:29:27;16.10;;;6.88;;
8187;SDS011;4135;49.184;9.722;2023-03-01T15:32:03;16.77;;;6.38;;
8187;SDS011;4135;49.184;9.722;2023-03-01T15:34:36;25.45;;;6.38;;
8187;SDS011;4135;49.184;9.722;2023-03-01T15:37:35;20.33;;;6.53;;
8187;SDS011;4135;49.184;9.722;2023-03-01T15:43:05;20.95;;;6.82;;
8187;SDS011;4135;49.184;9.722;2023-03-01T15:45:56;19.33;;;6.65;;
8187;SDS011;4135;49.184;9.722;2023-03-01T15:48:27;11.18;;;5.90;;
8187;SDS011;4135;49.184;9.722;2023-03-01T15:50:57;16.10;;;7.32;;
8187;SDS011;4135;49.184;9.722;2023-03-01T15:53:28;20.90;;;6.22;;
8187;SDS011;4135;49.184;9.722;2023-03-01T15:55:57;21.15;;;6.97;;
8187;SDS011;4135;49.184;9.722;2023-03-01T15:58:27;17.70;;;6.55;;
8187;SDS011;4135;49.184;9.722;2023-03-01T16:00:56;14.93;;;6.60;;
8187;SDS011;4135;49.184;9.722;2023-03-01T16:03:27;12.27;;;5.40;;
8187;SDS011;4135;49.184;9.722;2023-03-01T16:05:57;21.65;;;6.78;;
8187;SDS011;4135;49.184;9.722;2023-03-01T16:08:26;15.40;;;5.97;;
8187;SDS011;4135;49.184;9.722;2023-03-01T16:10:56;19.35;;;7.00;;
8187;SDS011;4135;49.184;9.722;2023-03-01T16:13:25;23.33;;;8.27;;
8187;SDS011;4135;49.184;9.722;2023-03-01T16:15:57;25.00;;;6.72;;
8187;SDS011;4135;49.184;9.722;2023-03-01T16:18:27;12.27;;;6.90;;
8187;SDS011;4135;49.184;9.722;2023-03-01T16:20:56;16.95;;;6.63;;
8187;SDS011;4135;49.184;9.722;2023-03-01T16:23:26;12.18;;;6.15;;
8187;SDS011;4135;49.184;9.722;2023-03-01T16:25:58;16.25;;;6.28;;
8187;SDS011;4135;49.184;9.722;2023-03-01T16:28:29;14.93;;;5.97;;
8187;SDS011;4135;49.184;9.722;2023-03-01T16:30:58;14.27;;;5.80;;
8187;SDS011;4135;49.184;9.722;2023-03-01T16:33:30;13.23;;;6.60;;
8187;SDS011;4135;49.184;9.722;2023-03-01T16:36:00;21.70;;;7.18;;
8187;SDS011;4135;49.184;9.722;2023-03-01T16:38:35;14.10;;;7.15;;
8187;SDS011;4135;49.184;9.722;2023-03-01T16:41:04;13.38;;;6.03;;
8187;SDS011;4135;49.184;9.722;2023-03-01T16:43:34;14.23;;;6.45;;
8187;SDS011;4135;49.184;9.722;2023-03-01T16:46:10;14.63;;;6.20;;
8187;SDS011;4135;49.184;9.722;2023-03-01T16:48:41;14.90;;;6.15;;
8187;SDS011;4135;49.184;9.722;2023-03-01T16:51:11;12.27;;;5.68;;
8187;SDS011;4135;49.184;9.722;2023-03-01T16:53:41;13.13;;;5.80;;
8187;SDS011;4135;49.184;9.722;2023-03-01T16:56:12;8.25;;;5.38;;
8187;SDS011;4135;49.184;9.722;2023-03-01T16:58:43;11.27;;;6.75;;
8187;SDS011;4135;49.184;9.722;2023-03-01T17:01:14;10.98;;;6.80;;
8187;SDS011;4135;49.184;9.722;2023-03-01T17:03:46;14.07;;;7.82;;
8187;SDS011;4135;49.184;9.722;2023-03-01T17:06:19;20.10;;;7.25;;
8187;SDS011;4135;49.184;9.722;2023-03-01T17:08:51;17.45;;;6.97;;
8187;SDS011;4135;49.184;9.722;2023-03-01T17:11:20;13.15;;;6.97;;
8187;SDS011;4135;49.184;9.722;2023-03-01T17:13:50;10.75;;;6.75;;
8187;SDS011;4135;49.184;9.722;2023-03-01T17:16:20;12.75;;;6.10;;
8187;SDS011;4135;49.184;9.722;2023-03-01T17:18:50;12.77;;;6.13;;
8187;SDS011;4135;49.184;9.722;2023-03-01T17:21:19;11.65;;;6.43;;
8187;SDS011;4135;49.184;9.722;2023-03-01T17:23:49;7.82;;;5.57;;
8187;SDS011;4135;49.184;9.722;2023-03-01T17:26:20;18.17;;;5.55;;
8187;SDS011;4135;49.184;9.722;2023-03-01T17:28:49;13.88;;;6.10;;
8187;SDS011;4135;49.184;9.722;2023-03-01T17:31:20;11.05;;;6.03;;
8187;SDS011;4135;49.184;9.722;2023-03-01T17:33:50;14.10;;;6.10;;